createdAt,value
2018-06-03T00:01:03.590Z,16.55
2018-06-03T00:03:45.727Z,16.52
2018-06-03T00:06:23.433Z,16.50
2018-06-03T00:08:54.922Z,16.46
2018-06-03T00:11:34.000Z,16.40
2018-06-03T00:14:06.021Z,16.43
2018-06-03T00:16:37.629Z,16.46
2018-06-03T00:19:10.305Z,16.44
2018-06-03T00:21:49.644Z,16.40
2018-06-03T00:24:48.698Z,16.30
2018-06-03T00:27:22.516Z,16.26
2018-06-03T00:29:56.650Z,16.34
2018-06-03T00:32:38.772Z,16.32
2018-06-03T00:35:24.222Z,16.28
2018-06-03T00:37:58.409Z,16.22
2018-06-03T00:40:32.147Z,16.19
2018-06-03T00:43:17.598Z,16.22
2018-06-03T00:48:48.419Z,16.18
2018-06-03T00:51:20.418Z,16.09
2018-06-03T00:53:58.706Z,16.05
2018-06-03T00:56:50.460Z,16.08
2018-06-03T00:59:25.527Z,16.00
2018-06-03T01:02:00.306Z,15.99
2018-06-03T01:04:53.595Z,15.92
2018-06-03T01:14:21.836Z,15.75
2018-06-03T01:17:10.918Z,15.64
2018-06-03T01:26:28.262Z,15.59
2018-06-03T01:44:07.687Z,15.44
2018-06-03T01:50:28.836Z,15.31
2018-06-03T01:53:16.338Z,15.25
2018-06-03T01:56:05.435Z,15.24
2018-06-03T02:39:06.429Z,15.06
2018-06-03T02:41:45.404Z,15.04
2018-06-03T02:44:26.857Z,15.04
2018-06-03T02:47:02.843Z,15.04
2018-06-03T02:49:35.496Z,15.05
2018-06-03T02:52:19.813Z,14.96
2018-06-03T02:57:48.677Z,14.93
2018-06-03T03:20:29.110Z,14.95
2018-06-03T03:26:15.991Z,14.78
2018-06-03T03:28:56.848Z,14.79
2018-06-03T03:31:29.613Z,14.76
2018-06-03T03:34:01.503Z,14.76
2018-06-03T03:36:34.022Z,14.70
2018-06-03T03:39:13.733Z,14.65
2018-06-03T03:41:47.333Z,14.69
2018-06-03T03:44:28.399Z,14.74
2018-06-03T03:47:05.545Z,14.70
2018-06-03T03:49:40.210Z,14.71
2018-06-03T03:52:26.665Z,14.75
2018-06-03T03:55:11.923Z,14.75
2018-06-03T03:57:45.945Z,14.79
2018-06-03T04:11:56.521Z,14.83
2018-06-03T04:14:28.545Z,14.84
2018-06-03T04:17:04.724Z,14.93
2018-06-03T04:19:36.554Z,14.94
2018-06-03T04:22:15.605Z,14.95
2018-06-03T04:24:47.165Z,14.98
2018-06-03T04:27:18.840Z,14.99
2018-06-03T04:29:51.149Z,15.02
2018-06-03T04:32:22.716Z,15.05
2018-06-03T04:35:10.604Z,15.04
2018-06-03T04:37:42.064Z,15.06
2018-06-03T04:40:13.509Z,15.14
2018-06-03T04:42:45.202Z,15.14
2018-06-03T04:45:16.448Z,15.13
2018-06-03T04:47:48.098Z,15.15
2018-06-03T04:50:21.243Z,15.17
2018-06-03T04:52:52.685Z,15.24
2018-06-03T04:55:23.893Z,15.29
2018-06-03T04:57:55.969Z,15.36
2018-06-03T05:00:33.135Z,15.44
2018-06-03T05:03:04.636Z,15.50
2018-06-03T05:05:41.366Z,15.54
2018-06-03T05:08:12.622Z,15.63
2018-06-03T05:10:43.981Z,15.72
2018-06-03T05:22:18.538Z,16.03
2018-06-03T05:24:56.406Z,16.12
2018-06-03T05:27:31.581Z,16.25
2018-06-03T05:30:13.399Z,16.35
2018-06-03T05:32:48.538Z,16.45
2018-06-03T05:35:19.666Z,16.55
2018-06-03T05:38:06.079Z,16.69
2018-06-03T05:40:55.379Z,16.83
2018-06-03T05:43:26.509Z,16.93
2018-06-03T05:46:04.410Z,16.96
2018-06-03T05:48:35.493Z,17.02
2018-06-03T05:51:06.889Z,17.07
2018-06-03T05:53:40.338Z,17.11
2018-06-03T05:56:12.723Z,17.20
2018-06-03T05:58:43.967Z,17.41
2018-06-03T06:01:15.118Z,17.50
2018-06-03T06:03:46.742Z,17.63
2018-06-03T06:06:17.758Z,17.79
2018-06-03T06:08:53.647Z,17.99
2018-06-03T06:11:25.167Z,18.11
2018-06-03T06:13:56.257Z,18.29
2018-06-03T06:16:27.492Z,18.44
2018-06-03T06:18:58.716Z,18.53
2018-06-03T06:21:29.968Z,18.66
2018-06-03T06:24:22.788Z,18.77
2018-06-03T06:26:54.914Z,18.96
2018-06-03T06:29:27.673Z,19.19
2018-06-03T06:34:37.090Z,19.48
2018-06-03T06:37:08.474Z,19.55
2018-06-03T06:39:41.509Z,19.70
2018-06-03T06:42:13.267Z,19.80
2018-06-03T06:45:08.372Z,19.92
2018-06-03T06:47:40.547Z,20.01
2018-06-03T06:53:00.600Z,20.30
2018-06-03T06:55:32.224Z,20.56
2018-06-03T06:58:17.163Z,20.62
2018-06-03T07:00:49.922Z,20.69
2018-06-03T07:03:55.276Z,20.97
2018-06-03T07:06:27.477Z,20.93
2018-06-03T07:08:59.483Z,21.01
2018-06-03T07:11:37.974Z,21.29
2018-06-03T07:14:10.000Z,21.43
2018-06-03T07:16:42.078Z,21.49
2018-06-03T07:19:14.736Z,21.48
2018-06-03T07:21:47.784Z,21.52
2018-06-03T07:24:20.411Z,21.66
2018-06-03T07:27:00.281Z,21.75
2018-06-03T07:29:31.692Z,21.88
2018-06-03T07:32:06.663Z,22.06
2018-06-03T07:34:39.928Z,22.09
2018-06-03T07:37:12.104Z,22.16
2018-06-03T07:52:59.267Z,22.98
2018-06-03T07:55:38.873Z,23.12
2018-06-03T07:58:11.963Z,23.24
2018-06-03T08:00:45.418Z,23.51
2018-06-03T08:03:16.698Z,23.65
2018-06-03T08:05:48.448Z,23.64
2018-06-03T08:08:30.406Z,23.63
2018-06-03T08:11:01.560Z,23.57
2018-06-03T08:13:33.008Z,23.53
2018-06-03T08:16:04.165Z,23.78
2018-06-03T08:18:35.294Z,23.90
2018-06-03T08:21:06.895Z,24.18
2018-06-03T08:23:38.084Z,24.40
2018-06-03T08:26:09.382Z,24.50
2018-06-03T08:28:40.766Z,24.72
2018-06-03T08:31:12.200Z,24.83
2018-06-03T08:33:43.421Z,25.07
2018-06-03T08:36:14.543Z,25.29
2018-06-03T08:38:46.185Z,25.87
2018-06-03T08:41:17.327Z,26.61
2018-06-03T08:43:48.386Z,27.45
2018-06-03T08:46:25.812Z,28.27
2018-06-03T08:48:56.920Z,28.76
2018-06-03T08:51:28.381Z,29.45
2018-06-03T08:54:05.038Z,29.85
2018-06-03T08:56:36.128Z,29.97
2018-06-03T08:59:07.795Z,30.43
2018-06-03T09:01:40.125Z,30.65
2018-06-03T09:04:11.260Z,30.99
2018-06-03T09:06:42.301Z,31.56
2018-06-03T09:09:13.660Z,31.69
2018-06-03T09:11:44.747Z,32.38
2018-06-03T09:14:16.201Z,31.57
2018-06-03T09:16:47.225Z,32.00
2018-06-03T09:19:18.645Z,31.96
2018-06-03T09:21:49.801Z,32.49
2018-06-03T09:24:21.261Z,33.24
2018-06-03T09:26:52.359Z,32.98
2018-06-03T09:29:23.524Z,33.53
2018-06-03T09:31:54.646Z,33.94
2018-06-03T09:34:26.321Z,34.21
2018-06-03T09:36:57.616Z,34.51
2018-06-03T09:39:29.128Z,33.88
2018-06-03T09:42:00.342Z,34.55
2018-06-03T09:44:31.619Z,33.94
2018-06-03T09:47:03.369Z,34.21
2018-06-03T09:49:34.740Z,34.06
2018-06-03T09:52:06.109Z,34.49
2018-06-03T09:54:37.567Z,35.20
2018-06-03T09:57:08.760Z,35.06
2018-06-03T09:59:39.837Z,35.75
2018-06-03T10:02:11.146Z,35.76
2018-06-03T10:04:42.866Z,36.15
2018-06-03T10:07:15.100Z,35.69
2018-06-03T10:09:46.172Z,35.51
2018-06-03T10:12:17.321Z,34.72
2018-06-03T10:14:49.606Z,34.30
2018-06-03T10:17:21.003Z,35.10
2018-06-03T10:19:52.132Z,34.41
2018-06-03T10:22:23.540Z,32.19
2018-06-03T10:24:56.960Z,32.23
2018-06-03T10:27:28.284Z,32.53
2018-06-03T10:29:59.688Z,32.40
2018-06-03T10:32:32.215Z,32.08
2018-06-03T10:35:03.462Z,30.86
2018-06-03T10:37:35.620Z,30.23
2018-06-03T10:40:07.304Z,30.36
2018-06-03T10:42:39.232Z,31.18
2018-06-03T10:45:12.087Z,31.78
2018-06-03T10:47:43.226Z,31.90
2018-06-03T10:50:20.868Z,31.77
2018-06-03T10:52:52.725Z,32.81
2018-06-03T10:55:24.593Z,32.99
2018-06-03T10:57:58.497Z,32.23
2018-06-03T11:00:29.809Z,32.05
2018-06-03T11:03:01.844Z,31.40
2018-06-03T11:05:33.039Z,31.13
2018-06-03T11:08:04.380Z,31.31
2018-06-03T11:10:37.166Z,31.23
2018-06-03T11:13:09.199Z,32.02
2018-06-03T11:15:41.275Z,31.89
2018-06-03T11:18:12.517Z,32.43
2018-06-03T11:20:44.434Z,32.61
2018-06-03T11:23:57.848Z,31.69
2018-06-03T11:26:34.253Z,32.52
2018-06-03T11:29:06.418Z,33.55
2018-06-03T11:31:37.796Z,32.70
2018-06-03T11:34:11.576Z,34.29
2018-06-03T11:36:43.372Z,36.38
2018-06-03T11:39:15.207Z,37.22
2018-06-03T11:41:46.978Z,37.81
2018-06-03T11:44:19.660Z,37.87
2018-06-03T11:46:51.627Z,36.42
2018-06-03T11:49:22.867Z,37.19
2018-06-03T11:51:55.798Z,35.41
2018-06-03T11:54:27.466Z,34.52
2018-06-03T11:57:04.815Z,36.00
2018-06-03T11:59:43.385Z,35.13
2018-06-03T12:02:32.418Z,34.55
2018-06-03T12:08:03.667Z,33.54
2018-06-03T12:10:40.677Z,32.33
2018-06-03T12:13:13.470Z,31.89
2018-06-03T12:15:44.913Z,31.04
2018-06-03T12:18:19.464Z,30.22
2018-06-03T12:20:57.423Z,30.28
2018-06-03T12:23:29.453Z,29.58
2018-06-03T12:26:02.680Z,29.56
2018-06-03T12:28:35.951Z,29.66
2018-06-03T12:31:16.716Z,29.83
2018-06-03T12:34:01.484Z,30.11
2018-06-03T12:40:17.225Z,31.44
2018-06-03T12:43:04.000Z,32.12
2018-06-03T12:45:54.116Z,32.28
2018-06-03T12:48:32.843Z,32.36
2018-06-03T12:51:08.752Z,32.32
2018-06-03T12:53:52.663Z,32.35
2018-06-03T12:56:24.609Z,31.92
2018-06-03T12:58:57.680Z,31.71
2018-06-03T13:01:34.985Z,32.03
2018-06-03T13:04:06.192Z,32.85
2018-06-03T13:06:37.358Z,33.67
2018-06-03T13:09:11.929Z,34.36
2018-06-03T13:11:43.180Z,33.99
2018-06-03T13:14:18.879Z,34.44
2018-06-03T13:16:50.172Z,34.19
2018-06-03T13:19:22.269Z,35.55
2018-06-03T13:21:55.090Z,37.12
2018-06-03T13:24:27.507Z,37.34
2018-06-03T13:27:00.778Z,38.41
2018-06-03T13:29:35.012Z,38.60
2018-06-03T13:32:07.031Z,39.27
2018-06-03T13:34:38.509Z,38.74
2018-06-03T13:37:10.197Z,38.67
2018-06-03T13:40:01.453Z,37.95
2018-06-03T13:42:43.097Z,35.00
2018-06-03T13:45:19.373Z,33.51
2018-06-03T13:47:53.074Z,32.34
2018-06-03T13:50:49.521Z,31.29
2018-06-03T13:53:47.046Z,29.95
2018-06-03T13:56:19.887Z,29.76
2018-06-03T13:58:54.917Z,30.41
2018-06-03T14:01:26.406Z,33.34
2018-06-03T14:09:48.145Z,32.58
2018-06-03T14:12:21.244Z,31.52
2018-06-03T14:14:53.317Z,31.52
2018-06-03T14:18:00.189Z,32.71
2018-06-03T14:20:33.186Z,35.18
2018-06-03T14:23:12.135Z,33.98
2018-06-03T14:25:49.344Z,35.39
2018-06-03T14:28:22.397Z,34.47
2018-06-03T14:30:54.121Z,32.30
2018-06-03T14:33:27.648Z,31.63
2018-06-03T14:36:08.730Z,30.60
2018-06-03T14:38:41.741Z,30.15
2018-06-03T14:53:37.828Z,29.73
2018-06-03T15:18:12.363Z,32.38
2018-06-03T15:22:47.481Z,34.41
2018-06-03T15:25:23.482Z,35.71
2018-06-03T15:33:19.464Z,35.11
2018-06-03T15:36:12.417Z,36.51
2018-06-03T15:38:51.259Z,34.57
2018-06-03T15:44:28.447Z,31.92
2018-06-03T15:47:07.280Z,31.33
2018-06-03T15:55:04.494Z,30.83
2018-06-03T16:00:49.311Z,28.21
2018-06-03T16:03:38.753Z,28.03
2018-06-03T16:07:07.409Z,27.63
2018-06-03T16:09:48.504Z,27.24
2018-06-03T16:12:24.404Z,27.20
2018-06-03T16:15:04.987Z,27.04
2018-06-03T16:17:40.790Z,27.19
2018-06-03T16:20:13.380Z,27.42
2018-06-03T16:22:45.592Z,27.85
2018-06-03T16:25:17.093Z,28.15
2018-06-03T16:27:56.138Z,28.45
2018-06-03T16:30:35.878Z,28.69
2018-06-03T16:33:08.113Z,28.60
2018-06-03T16:35:42.903Z,28.68
2018-06-03T16:38:18.200Z,28.53
2018-06-03T16:40:48.825Z,28.65
2018-06-03T16:43:21.720Z,28.67
2018-06-03T16:46:00.176Z,28.61
2018-06-03T16:48:32.589Z,28.57
2018-06-03T16:51:06.786Z,28.32
2018-06-03T16:53:36.609Z,28.22
2018-06-03T16:56:17.921Z,28.14
2018-06-03T16:58:50.686Z,27.82
2018-06-03T17:01:21.083Z,27.70
2018-06-03T17:06:48.415Z,27.50
2018-06-03T17:09:21.476Z,27.37
2018-06-03T17:11:52.792Z,27.15
2018-06-03T17:20:11.910Z,27.07
2018-06-03T17:23:16.399Z,26.62
2018-06-03T17:25:52.075Z,26.61
2018-06-03T17:31:24.432Z,26.42
2018-06-03T17:33:56.517Z,26.26
2018-06-03T17:39:31.270Z,26.31
2018-06-03T17:42:27.990Z,26.09
2018-06-03T17:45:20.239Z,26.00
2018-06-03T17:47:54.349Z,25.92
2018-06-03T17:50:25.066Z,25.83
2018-06-03T17:52:57.005Z,25.82
2018-06-03T17:55:27.738Z,25.70
2018-06-03T17:57:59.730Z,25.67
2018-06-03T18:00:31.885Z,25.55
2018-06-03T18:03:06.400Z,25.47
2018-06-03T18:05:38.693Z,25.49
2018-06-03T18:08:14.161Z,25.57
2018-06-03T18:11:05.304Z,25.59
2018-06-03T18:13:55.287Z,25.68
2018-06-03T18:27:48.816Z,25.69
2018-06-03T18:41:17.288Z,25.20
2018-06-03T18:43:53.431Z,25.19
2018-06-03T18:46:23.412Z,25.13
2018-06-03T18:52:12.993Z,25.12
2018-06-03T18:55:09.507Z,25.09
2018-06-03T18:57:45.295Z,25.03
2018-06-03T19:00:30.528Z,24.91
2018-06-03T19:03:05.029Z,24.80
2018-06-03T19:05:36.903Z,24.78
2018-06-03T19:08:08.862Z,24.68
2018-06-03T19:10:40.124Z,24.58
2018-06-03T19:13:11.655Z,24.41
2018-06-03T19:15:45.519Z,24.21
2018-06-03T19:18:16.305Z,23.96
2018-06-03T19:20:47.416Z,23.69
2018-06-03T19:23:22.016Z,23.51
2018-06-03T19:28:33.535Z,22.95
2018-06-03T19:31:08.243Z,22.81
2018-06-03T19:33:58.849Z,22.67
2018-06-03T19:36:29.804Z,22.61
2018-06-03T19:39:01.066Z,22.50
2018-06-03T19:44:24.823Z,22.24
2018-06-03T19:46:56.132Z,22.15
2018-06-03T19:49:36.506Z,21.94
2018-06-03T19:52:08.348Z,21.88
2018-06-03T19:54:39.209Z,21.66
2018-06-03T19:57:10.404Z,21.57
2018-06-03T19:59:43.571Z,21.49
2018-06-03T20:02:16.878Z,21.47
2018-06-03T20:04:47.803Z,21.29
2018-06-03T20:07:27.905Z,21.04
2018-06-03T20:12:54.678Z,21.00
2018-06-03T20:15:28.006Z,20.95
2018-06-03T20:35:03.204Z,20.40
2018-06-03T20:37:40.233Z,20.42
2018-06-03T20:40:16.885Z,20.28
2018-06-03T20:43:00.805Z,20.20
2018-06-03T20:45:36.393Z,20.21
2018-06-03T20:48:10.088Z,20.13
2018-06-03T20:51:18.300Z,20.04
2018-06-03T20:54:08.928Z,19.41
2018-06-03T20:56:42.237Z,20.00
2018-06-03T20:59:16.289Z,19.94
2018-06-03T21:01:48.007Z,19.89
2018-06-03T21:04:31.161Z,19.82
2018-06-03T21:07:09.179Z,19.65
2018-06-03T21:17:45.690Z,19.43
2018-06-03T21:59:47.053Z,18.60
2018-06-03T22:02:27.672Z,18.63
2018-06-03T22:05:06.899Z,18.54
2018-06-03T22:11:00.444Z,18.47
2018-06-03T22:13:45.251Z,18.46
2018-06-03T22:16:22.412Z,18.43
2018-06-03T22:18:53.545Z,18.41
2018-06-03T22:21:36.350Z,18.34
2018-06-03T22:24:19.643Z,18.40
2018-06-03T22:42:50.119Z,18.23
2018-06-03T22:45:20.242Z,18.24
2018-06-03T22:47:50.342Z,18.22
2018-06-03T22:50:23.294Z,18.11
2018-06-03T22:52:53.319Z,18.14
2018-06-03T22:55:23.469Z,18.09
2018-06-03T22:57:59.954Z,18.07
2018-06-03T23:03:41.073Z,17.84
2018-06-03T23:06:21.456Z,17.70
2018-06-03T23:08:52.780Z,17.63
2018-06-03T23:11:28.466Z,17.62
2018-06-03T23:13:59.042Z,16.78
2018-06-03T23:16:44.888Z,17.56
2018-06-03T23:19:16.005Z,17.52
2018-06-03T23:21:46.184Z,17.51
2018-06-03T23:24:22.450Z,17.48
2018-06-03T23:31:49.319Z,17.43
2018-06-03T23:34:20.188Z,16.72
2018-06-03T23:36:53.070Z,17.32
2018-06-03T23:39:23.799Z,17.35
2018-06-03T23:42:00.380Z,17.36
2018-06-03T23:44:30.217Z,17.37
2018-06-03T23:47:00.090Z,17.35
2018-06-03T23:49:35.287Z,17.30
2018-06-03T23:52:13.599Z,17.26
2018-06-03T23:54:44.171Z,17.25
2018-06-03T23:57:15.476Z,17.16
2018-06-03T23:59:45.840Z,17.24
